Time;durP1;ratioP1;P1;durP2;ratioP2;P2;SDS_P1;SDS_P2;PMS_P1;PMS_P2;Temp;Humidity;BMP_temperature;BMP_pressure;BME280_temperature;BME280_humidity;BME280_pressure;Samples;Min_cycle;Max_cycle;Signal;HPM_P1;HPM_P2
2023/04/29 00:00:43;;;;;;;66.20;41.63;;;9.60;99.90;;;;;;5021511;28;20040;-79
2023/04/29 00:03:09;;;;;;;63.37;41.63;;;9.60;99.90;;;;;;5037834;28;20376;-79
2023/04/29 00:05:35;;;;;;;69.30;41.30;;;9.60;99.90;;;;;;5037886;28;20503;-80
2023/04/29 00:08:00;;;;;;;69.60;41.30;;;9.60;99.90;;;;;;5037831;28;20043;-78
2023/04/29 00:10:26;;;;;;;75.70;43.57;;;9.50;99.90;;;;;;5053826;28;20380;-81
2023/04/29 00:12:53;;;;;;;76.57;43.63;;;9.50;99.90;;;;;;5038488;28;20529;-80
2023/04/29 00:15:19;;;;;;;79.57;46.07;;;9.50;99.90;;;;;;5054972;28;20449;-79
2023/04/29 00:17:44;;;;;;;83.83;46.13;;;9.50;99.90;;;;;;5037821;28;20045;-80
2023/04/29 00:20:11;;;;;;;80.23;44.97;;;9.50;99.90;;;;;;5038431;28;20055;-79
2023/04/29 00:22:37;;;;;;;85.30;47.57;;;9.50;99.90;;;;;;5037820;28;20561;-78
2023/04/29 00:25:04;;;;;;;83.80;46.63;;;9.50;99.90;;;;;;5053950;28;20044;-81
2023/04/29 00:27:32;;;;;;;77.43;45.40;;;9.50;99.90;;;;;;5022058;28;20040;-81
2023/04/29 00:29:57;;;;;;;80.73;47.67;;;9.40;99.90;;;;;;5037825;28;20036;-79
2023/04/29 00:32:23;;;;;;;83.50;46.07;;;9.50;99.90;;;;;;5037889;28;20063;-78
2023/04/29 00:34:50;;;;;;;86.20;46.47;;;9.50;99.90;;;;;;5054712;28;20409;-79
2023/04/29 00:37:16;;;;;;;78.23;44.03;;;9.40;99.90;;;;;;5054299;28;20075;-79
2023/04/29 00:39:41;;;;;;;78.97;44.57;;;9.40;99.90;;;;;;5037570;28;20092;-79
2023/04/29 00:42:08;;;;;;;71.70;42.77;;;9.40;99.90;;;;;;5037246;28;20040;-80
2023/04/29 00:44:34;;;;;;;67.30;40.87;;;9.40;99.90;;;;;;5054274;28;20080;-78
2023/04/29 00:47:00;;;;;;;74.57;42.67;;;9.40;99.90;;;;;;5036152;28;20072;-79
2023/04/29 00:49:26;;;;;;;68.27;40.87;;;9.40;99.90;;;;;;5036270;28;20036;-78
2023/04/29 00:51:55;;;;;;;73.00;41.60;;;9.30;99.90;;;;;;5053572;28;20052;-78
2023/04/29 00:54:20;;;;;;;68.50;41.43;;;9.30;99.90;;;;;;5053497;28;20048;-77
2023/04/29 00:56:47;;;;;;;73.80;41.43;;;9.30;99.90;;;;;;5053054;28;20055;-78
2023/04/29 00:59:15;;;;;;;72.57;41.80;;;9.30;99.90;;;;;;5053675;28;20049;-79
2023/04/29 01:01:41;;;;;;;72.00;41.20;;;9.30;99.90;;;;;;5037499;28;20115;-77
2023/04/29 01:04:07;;;;;;;68.20;41.13;;;9.30;99.90;;;;;;5053188;28;20056;-80
2023/04/29 01:06:52;;;;;;;68.17;37.87;;;9.30;99.90;;;;;;5036852;28;20044;-79
2023/04/29 01:09:39;;;;;;;69.70;40.20;;;9.30;99.90;;;;;;5036850;28;20430;-79
2023/04/29 01:12:09;;;;;;;69.67;39.10;;;9.30;99.90;;;;;;5052840;28;20070;-80
2023/04/29 01:14:38;;;;;;;64.50;38.13;;;9.20;99.90;;;;;;5036777;28;20048;-78
2023/04/29 01:17:09;;;;;;;70.70;40.60;;;9.20;99.90;;;;;;5050571;28;20132;-80
2023/04/29 01:19:53;;;;;;;60.35;37.15;;;9.20;99.90;;;;;;5042546;28;20049;-81
2023/04/29 01:22:20;;;;;;;67.60;37.63;;;9.20;99.90;;;;;;5048879;28;20045;-78
2023/04/29 01:24:47;;;;;;;67.43;38.50;;;9.20;99.90;;;;;;5049765;28;20045;-80
2023/04/29 01:27:43;;;;;;;61.13;34.60;;;9.20;99.90;;;;;;5016730;28;20049;-79
2023/04/29 01:30:37;;;;;;;57.77;35.10;;;9.20;99.90;;;;;;5032914;28;20399;-77
2023/04/29 01:33:16;;;;;;;59.87;34.30;;;9.20;99.90;;;;;;5032944;28;20471;-79
2023/04/29 01:36:15;;;;;;;63.17;36.23;;;9.20;99.90;;;;;;5032831;28;20115;-77
2023/04/29 01:39:05;;;;;;;62.10;35.50;;;9.10;99.90;;;;;;5020721;28;20048;-80
2023/04/29 01:41:42;;;;;;;61.30;35.67;;;9.10;99.90;;;;;;5049319;28;20033;-80
2023/04/29 01:44:15;;;;;;;63.80;35.80;;;9.10;99.90;;;;;;5032176;28;20040;-79
2023/04/29 01:46:43;;;;;;;57.37;34.67;;;9.10;99.90;;;;;;5049171;28;20040;-80
2023/04/29 01:49:09;;;;;;;58.90;32.87;;;9.10;99.90;;;;;;5033363;28;20116;-83
2023/04/29 01:51:34;;;;;;;59.57;34.43;;;9.10;99.90;;;;;;5017441;28;20121;-82
2023/04/29 01:54:00;;;;;;;58.63;33.83;;;9.10;99.90;;;;;;5017032;28;20106;-82
2023/04/29 01:56:26;;;;;;;56.43;34.20;;;9.10;99.90;;;;;;5016934;28;20045;-82
2023/04/29 01:58:51;;;;;;;59.97;33.37;;;9.10;99.90;;;;;;4999742;28;20160;-80
2023/04/29 02:01:17;;;;;;;54.33;32.73;;;9.10;99.90;;;;;;5049571;28;20041;-80
2023/04/29 02:03:42;;;;;;;53.27;30.40;;;9.10;99.90;;;;;;5049831;28;20124;-79
2023/04/29 02:06:08;;;;;;;51.33;30.33;;;9.10;99.90;;;;;;5016771;28;20041;-80
2023/04/29 02:08:34;;;;;;;51.93;31.30;;;9.10;99.90;;;;;;5016645;28;20037;-80
2023/04/29 02:11:00;;;;;;;54.87;32.33;;;9.10;99.90;;;;;;5017512;28;20044;-80
2023/04/29 02:13:26;;;;;;;55.73;32.00;;;9.10;99.90;;;;;;5034095;28;20572;-79
2023/04/29 02:15:51;;;;;;;61.40;32.77;;;9.10;99.90;;;;;;5017849;28;20055;-80
2023/04/29 02:18:17;;;;;;;55.27;32.13;;;9.10;99.90;;;;;;5050728;28;20061;-79
2023/04/29 02:20:43;;;;;;;55.97;32.97;;;9.10;99.90;;;;;;5017691;28;20041;-80
2023/04/29 02:23:09;;;;;;;53.20;32.73;;;9.10;99.90;;;;;;5017913;28;20484;-80
2023/04/29 02:25:36;;;;;;;52.70;32.20;;;9.10;99.90;;;;;;5001539;28;20167;-80
2023/04/29 02:28:01;;;;;;;58.47;32.17;;;9.10;99.90;;;;;;5017915;28;20086;-80
2023/04/29 02:30:27;;;;;;;59.03;32.67;;;9.10;99.90;;;;;;5051023;28;20116;-79
2023/04/29 02:32:53;;;;;;;50.80;29.63;;;9.10;99.90;;;;;;5018803;28;20045;-80
2023/04/29 02:35:19;;;;;;;50.10;28.90;;;9.00;99.90;;;;;;5020997;28;20045;-82
2023/04/29 02:37:45;;;;;;;48.83;29.43;;;9.10;99.90;;;;;;5020475;28;20051;-80
2023/04/29 02:40:11;;;;;;;46.67;28.83;;;9.00;99.90;;;;;;5035164;28;20064;-80
2023/04/29 02:42:37;;;;;;;51.13;28.10;;;9.00;99.90;;;;;;5037166;28;20770;-79
2023/04/29 02:45:03;;;;;;;44.97;27.90;;;9.00;99.90;;;;;;5037253;28;20107;-80
2023/04/29 02:47:29;;;;;;;52.30;28.60;;;9.00;99.90;;;;;;5021277;28;20427;-80
2023/04/29 02:49:54;;;;;;;46.90;27.50;;;9.00;99.90;;;;;;5020839;28;20099;-81
2023/04/29 02:52:20;;;;;;;44.43;26.80;;;9.00;99.90;;;;;;5000495;28;20407;-80
2023/04/29 02:54:46;;;;;;;49.63;27.47;;;9.00;99.90;;;;;;5018215;28;20037;-80
2023/04/29 02:57:11;;;;;;;48.90;27.93;;;9.00;99.90;;;;;;5021230;28;20045;-79
2023/04/29 02:59:37;;;;;;;51.00;27.90;;;9.00;99.90;;;;;;5053759;28;20040;-80
2023/04/29 03:02:03;;;;;;;52.23;30.27;;;9.00;99.90;;;;;;5053676;28;20040;-81
2023/04/29 03:04:29;;;;;;;52.07;29.20;;;9.00;99.90;;;;;;5036904;28;20033;-81
2023/04/29 03:06:58;;;;;;;53.27;28.70;;;8.90;99.90;;;;;;5052942;28;20068;-79
2023/04/29 03:09:23;;;;;;;49.93;27.40;;;8.90;99.90;;;;;;5020356;28;20040;-80
2023/04/29 03:11:49;;;;;;;52.37;28.73;;;8.90;99.90;;;;;;5037183;28;20140;-80
2023/04/29 03:14:15;;;;;;;50.77;29.20;;;8.90;99.90;;;;;;5037343;28;20431;-79
2023/04/29 03:16:41;;;;;;;47.43;25.73;;;8.90;99.90;;;;;;5021149;28;20060;-79
2023/04/29 03:19:07;;;;;;;45.50;26.70;;;8.90;99.90;;;;;;5004393;28;20049;-80
2023/04/29 03:21:33;;;;;;;42.30;25.27;;;8.80;99.90;;;;;;5020216;28;20045;-80
2023/04/29 03:23:59;;;;;;;45.43;26.67;;;8.90;99.90;;;;;;5035759;28;20044;-80
2023/04/29 03:26:24;;;;;;;44.77;26.00;;;8.80;99.90;;;;;;5019978;28;20178;-80
2023/04/29 03:28:51;;;;;;;46.60;27.37;;;8.90;99.90;;;;;;5020106;28;20033;-80
2023/04/29 03:31:16;;;;;;;46.63;27.10;;;8.90;99.90;;;;;;5024458;28;20159;-80
2023/04/29 03:33:42;;;;;;;49.77;26.80;;;8.80;99.90;;;;;;5015427;28;20136;-80
2023/04/29 03:36:09;;;;;;;40.77;25.40;;;8.80;99.90;;;;;;5033483;28;20737;-82
2023/04/29 03:38:35;;;;;;;45.70;25.73;;;8.80;99.90;;;;;;5045292;28;20044;-81
2023/04/29 03:41:01;;;;;;;44.40;26.33;;;8.80;99.90;;;;;;5036478;28;20049;-80
2023/04/29 03:43:27;;;;;;;47.07;25.10;;;8.80;99.90;;;;;;5035696;28;20044;-80
2023/04/29 03:45:52;;;;;;;42.80;24.03;;;8.70;99.90;;;;;;5018918;28;20040;-79
2023/04/29 03:48:21;;;;;;;39.93;23.03;;;8.70;99.90;;;;;;5035741;28;20041;-79
2023/04/29 03:50:46;;;;;;;40.63;24.17;;;8.70;99.90;;;;;;5052522;28;20037;-79
2023/04/29 03:53:13;;;;;;;38.77;23.40;;;8.70;99.90;;;;;;5019133;28;20124;-78
2023/04/29 03:55:38;;;;;;;42.83;23.93;;;8.70;99.90;;;;;;5035839;28;20472;-80
2023/04/29 03:58:04;;;;;;;38.83;22.97;;;8.70;99.90;;;;;;5019581;28;20124;-80
2023/04/29 04:00:30;;;;;;;37.40;23.20;;;8.70;99.90;;;;;;5019557;28;20037;-80
2023/04/29 04:02:59;;;;;;;38.53;24.27;;;8.70;99.90;;;;;;5051913;28;20407;-79
2023/04/29 04:05:25;;;;;;;43.70;24.97;;;8.70;99.90;;;;;;5052489;28;20076;-80
2023/04/29 04:07:51;;;;;;;41.00;24.43;;;8.60;99.90;;;;;;5052524;28;20040;-79
2023/04/29 04:10:18;;;;;;;44.07;24.00;;;8.60;99.90;;;;;;5036104;28;20076;-80
2023/04/29 04:12:44;;;;;;;47.37;24.20;;;8.60;99.90;;;;;;5052506;28;20333;-80
2023/04/29 04:15:10;;;;;;;46.07;25.17;;;8.70;99.90;;;;;;5035446;28;20045;-80
2023/04/29 04:17:36;;;;;;;42.27;24.13;;;8.60;99.90;;;;;;5018974;28;20057;-80
2023/04/29 04:20:01;;;;;;;44.53;25.67;;;8.70;99.90;;;;;;5018962;28;20045;-80
2023/04/29 04:22:27;;;;;;;41.53;24.43;;;8.60;99.90;;;;;;5019304;28;20044;-80
2023/04/29 04:24:56;;;;;;;41.13;24.33;;;8.60;99.90;;;;;;5035187;28;20167;-80
2023/04/29 04:27:22;;;;;;;39.87;23.53;;;8.70;99.90;;;;;;5035958;28;20045;-80
2023/04/29 04:29:52;;;;;;;40.67;22.90;;;8.70;99.90;;;;;;5017937;28;20052;-78
2023/04/29 04:32:17;;;;;;;40.53;23.10;;;8.70;99.90;;;;;;5033509;28;20049;-79
2023/04/29 04:34:43;;;;;;;41.97;23.27;;;8.70;99.90;;;;;;5051107;28;20052;-79
2023/04/29 04:37:09;;;;;;;37.17;21.67;;;8.70;99.90;;;;;;5034598;28;20119;-81
2023/04/29 04:39:34;;;;;;;36.37;21.43;;;8.70;99.90;;;;;;5035196;28;20047;-79
2023/04/29 04:42:02;;;;;;;36.80;19.57;;;8.70;99.90;;;;;;5050872;28;20396;-78
2023/04/29 04:44:27;;;;;;;33.03;18.30;;;8.70;99.90;;;;;;5019540;28;20117;-80
2023/04/29 04:46:53;;;;;;;34.23;19.17;;;8.70;99.90;;;;;;5015416;28;20488;-81
2023/04/29 04:49:19;;;;;;;33.77;19.10;;;8.70;99.90;;;;;;5000208;28;20037;-80
2023/04/29 04:51:44;;;;;;;30.53;17.27;;;8.70;99.90;;;;;;5034973;28;20032;-79
2023/04/29 04:54:11;;;;;;;35.43;18.20;;;8.70;99.90;;;;;;5034770;28;20514;-79
2023/04/29 04:56:36;;;;;;;31.63;17.67;;;8.80;99.90;;;;;;5050432;28;20041;-79
2023/04/29 04:59:03;;;;;;;29.47;16.87;;;8.80;99.90;;;;;;5051786;28;20395;-79
2023/04/29 05:01:28;;;;;;;29.70;16.73;;;8.70;99.90;;;;;;5034972;28;20045;-80
2023/04/29 05:03:54;;;;;;;30.63;16.80;;;8.80;99.90;;;;;;5018378;28;20041;-79
2023/04/29 05:06:20;;;;;;;25.30;15.67;;;8.80;99.90;;;;;;5034293;28;20075;-80
2023/04/29 05:08:46;;;;;;;31.87;17.47;;;8.80;99.90;;;;;;5034613;28;20041;-79
2023/04/29 05:11:19;;;;;;;24.67;15.20;;;8.80;99.90;;;;;;5034550;28;20175;-80
2023/04/29 05:13:44;;;;;;;30.67;16.37;;;8.80;99.90;;;;;;5050951;28;20052;-79
2023/04/29 05:16:10;;;;;;;31.13;16.47;;;8.80;99.90;;;;;;5034443;28;20045;-79
2023/04/29 05:18:36;;;;;;;25.80;16.00;;;8.80;99.90;;;;;;5021264;28;20123;-78
2023/04/29 05:21:02;;;;;;;32.30;16.17;;;8.80;99.90;;;;;;5038022;28;20049;-78
2023/04/29 05:23:28;;;;;;;26.90;16.17;;;8.80;99.90;;;;;;5037932;28;20044;-80
2023/04/29 05:25:54;;;;;;;27.90;17.43;;;8.80;99.90;;;;;;5053783;28;20029;-80
2023/04/29 05:28:19;;;;;;;24.43;16.33;;;8.80;99.90;;;;;;5037815;28;20106;-80
2023/04/29 05:30:46;;;;;;;29.93;16.93;;;8.80;99.90;;;;;;5037228;28;20450;-80
2023/04/29 05:33:12;;;;;;;31.33;17.53;;;8.80;99.90;;;;;;5053691;28;20048;-78
2023/04/29 05:35:37;;;;;;;27.40;16.83;;;8.80;99.90;;;;;;5037869;28;20036;-79
2023/04/29 05:38:03;;;;;;;28.97;17.20;;;8.80;99.90;;;;;;5053661;28;20075;-79
2023/04/29 05:40:29;;;;;;;29.43;18.03;;;8.80;99.90;;;;;;5020928;28;20033;-79
2023/04/29 05:42:55;;;;;;;31.83;16.63;;;8.80;99.90;;;;;;5053973;28;20129;-81
2023/04/29 05:45:20;;;;;;;27.63;17.30;;;8.90;99.90;;;;;;5037109;28;20040;-81
2023/04/29 05:47:46;;;;;;;32.23;18.47;;;8.80;99.90;;;;;;5020684;28;20430;-79
2023/04/29 05:50:12;;;;;;;34.07;18.43;;;8.80;99.90;;;;;;5036948;28;20444;-79
2023/04/29 05:52:38;;;;;;;35.47;19.13;;;8.90;99.90;;;;;;5037702;28;20036;-77
2023/04/29 05:55:04;;;;;;;36.97;19.33;;;8.90;99.90;;;;;;5037579;28;20484;-81
2023/04/29 05:57:29;;;;;;;30.90;18.27;;;8.90;99.90;;;;;;5053243;28;20040;-80
2023/04/29 05:59:56;;;;;;;29.60;18.50;;;8.90;99.90;;;;;;5037478;28;20432;-79
2023/04/29 06:02:22;;;;;;;35.30;18.10;;;8.90;99.90;;;;;;5053738;28;20816;-79
2023/04/29 06:04:48;;;;;;;26.30;17.40;;;8.90;99.90;;;;;;5053222;28;20041;-79
2023/04/29 06:07:13;;;;;;;33.00;18.10;;;8.90;99.90;;;;;;5054731;28;20044;-79
2023/04/29 06:09:40;;;;;;;29.87;17.17;;;8.90;99.90;;;;;;5024475;28;20033;-79
2023/04/29 06:12:05;;;;;;;30.33;17.97;;;8.90;99.90;;;;;;5024115;28;20036;-79
2023/04/29 06:14:31;;;;;;;29.40;17.27;;;9.00;99.90;;;;;;5056972;28;20051;-79
2023/04/29 06:16:57;;;;;;;31.40;16.70;;;9.00;99.90;;;;;;5056696;28;20059;-78
2023/04/29 06:19:24;;;;;;;30.40;17.37;;;9.00;99.90;;;;;;5040771;28;20052;-79
2023/04/29 06:21:50;;;;;;;28.90;16.90;;;9.00;99.90;;;;;;5056282;28;20075;-79
2023/04/29 06:24:15;;;;;;;26.23;16.40;;;9.10;99.90;;;;;;5006110;28;20723;-80
2023/04/29 06:26:41;;;;;;;27.37;16.47;;;9.10;99.90;;;;;;5056871;28;20032;-79
2023/04/29 06:29:07;;;;;;;24.87;15.23;;;9.10;99.90;;;;;;5057346;28;20036;-80
2023/04/29 06:31:33;;;;;;;27.97;15.70;;;9.10;99.90;;;;;;5024448;28;20045;-79
2023/04/29 06:33:59;;;;;;;28.03;15.63;;;9.20;99.90;;;;;;5040577;28;20051;-79
2023/04/29 06:36:26;;;;;;;23.63;15.37;;;9.20;99.90;;;;;;5024244;28;20044;-79
2023/04/29 06:38:52;;;;;;;24.03;13.93;;;9.30;99.90;;;;;;5056753;28;20049;-80
2023/04/29 06:41:17;;;;;;;23.20;14.40;;;9.40;99.90;;;;;;5004420;28;20036;-80
2023/04/29 06:43:43;;;;;;;25.37;14.60;;;9.40;99.90;;;;;;5020610;28;20453;-79
2023/04/29 06:46:10;;;;;;;23.30;14.23;;;9.50;99.90;;;;;;5039992;28;20444;-79
2023/04/29 06:48:36;;;;;;;18.73;13.17;;;9.50;99.90;;;;;;5056173;28;20036;-80
2023/04/29 06:51:01;;;;;;;22.17;12.87;;;9.60;99.90;;;;;;5039617;28;20036;-78
2023/04/29 06:53:27;;;;;;;21.37;12.87;;;9.60;99.90;;;;;;5040295;28;20113;-79
2023/04/29 06:55:53;;;;;;;19.60;12.37;;;9.60;99.90;;;;;;5023440;28;20060;-78
2023/04/29 06:58:19;;;;;;;19.03;12.10;;;9.70;99.90;;;;;;5056196;28;20041;-79
2023/04/29 07:00:49;;;;;;;21.40;13.10;;;9.70;99.90;;;;;;5056123;28;20735;-80
2023/04/29 07:03:16;;;;;;;19.27;12.77;;;9.80;99.90;;;;;;5039470;28;20071;-80
2023/04/29 07:05:44;;;;;;;20.93;12.50;;;9.80;99.90;;;;;;5055343;28;20101;-78
2023/04/29 07:08:11;;;;;;;18.13;11.67;;;9.80;99.90;;;;;;5056586;28;20047;-78
2023/04/29 07:10:37;;;;;;;18.53;12.00;;;9.90;99.90;;;;;;5039905;28;20035;-79
2023/04/29 07:13:03;;;;;;;20.50;13.27;;;10.10;99.90;;;;;;5040210;28;20401;-79
2023/04/29 07:15:29;;;;;;;17.30;11.17;;;10.20;99.90;;;;;;5022883;28;20033;-80
2023/04/29 07:17:55;;;;;;;20.77;11.87;;;10.30;99.90;;;;;;5028674;28;20174;-78
2023/04/29 07:20:21;;;;;;;18.20;12.37;;;10.50;99.90;;;;;;5035689;28;20055;-79
2023/04/29 07:22:47;;;;;;;18.90;11.47;;;10.60;99.90;;;;;;5035778;28;20037;-80
2023/04/29 07:25:13;;;;;;;19.90;12.37;;;10.80;99.90;;;;;;5019269;28;20111;-80
2023/04/29 07:27:39;;;;;;;16.77;12.17;;;10.90;99.90;;;;;;5035579;28;20380;-79
2023/04/29 07:30:05;;;;;;;18.93;11.10;;;11.00;99.90;;;;;;5035198;28;20060;-79
2023/04/29 07:32:31;;;;;;;15.23;10.80;;;11.10;99.90;;;;;;5018753;28;20663;-80
2023/04/29 07:34:58;;;;;;;15.90;11.03;;;11.10;99.90;;;;;;5018286;28;20052;-79
2023/04/29 07:37:24;;;;;;;16.30;10.93;;;11.00;99.90;;;;;;5035831;28;20391;-79
2023/04/29 07:39:50;;;;;;;14.33;9.70;;;11.10;99.90;;;;;;5034533;28;20041;-77
2023/04/29 07:42:15;;;;;;;18.07;10.47;;;11.00;99.90;;;;;;5001368;28;20037;-80
2023/04/29 07:44:41;;;;;;;17.83;10.50;;;10.90;99.90;;;;;;5019071;28;20041;-80
2023/04/29 07:47:07;;;;;;;14.23;10.97;;;10.90;99.90;;;;;;5032494;28;20048;-79
2023/04/29 07:49:34;;;;;;;16.80;10.03;;;11.00;99.90;;;;;;5035302;28;20037;-81
2023/04/29 07:52:01;;;;;;;16.70;10.33;;;11.00;99.90;;;;;;5002814;28;20130;-79
2023/04/29 07:54:26;;;;;;;17.13;10.70;;;11.10;99.90;;;;;;5018690;28;20043;-81
2023/04/29 07:56:52;;;;;;;17.07;10.97;;;11.20;99.90;;;;;;5034565;28;20044;-78
2023/04/29 07:59:18;;;;;;;13.43;9.87;;;11.30;99.90;;;;;;5018775;28;20083;-79
2023/04/29 08:01:43;;;;;;;14.43;10.27;;;11.40;99.90;;;;;;5018588;28;20438;-79
2023/04/29 08:04:09;;;;;;;16.60;10.20;;;11.40;99.90;;;;;;5035022;28;20045;-79
2023/04/29 08:06:35;;;;;;;13.83;10.10;;;11.50;99.90;;;;;;5001899;28;20090;-80
2023/04/29 08:09:00;;;;;;;14.87;9.77;;;11.70;99.90;;;;;;5034778;28;20362;-80
2023/04/29 08:11:26;;;;;;;17.50;10.18;;;11.80;99.90;;;;;;5019250;28;20388;-79
2023/04/29 08:13:53;;;;;;;16.13;10.50;;;11.90;99.90;;;;;;5015519;28;20772;-79
2023/04/29 08:16:20;;;;;;;17.33;10.07;;;12.00;99.90;;;;;;5016261;28;20079;-81
2023/04/29 08:18:46;;;;;;;15.88;10.77;;;12.10;99.90;;;;;;5033317;28;20448;-81
2023/04/29 08:21:12;;;;;;;14.07;9.25;;;12.20;99.90;;;;;;5037948;28;20142;-81
2023/04/29 08:23:38;;;;;;;13.27;9.27;;;12.30;99.90;;;;;;5054171;28;20098;-80
2023/04/29 08:26:04;;;;;;;13.18;9.23;;;12.30;99.90;;;;;;5054166;28;20032;-80
2023/04/29 08:28:30;;;;;;;13.68;8.88;;;12.30;99.90;;;;;;5038466;28;20043;-82
2023/04/29 08:30:55;;;;;;;13.23;9.35;;;12.30;99.90;;;;;;5054192;28;20480;-80
2023/04/29 08:33:21;;;;;;;14.27;9.43;;;12.40;99.90;;;;;;5021548;28;20048;-80
2023/04/29 08:35:47;;;;;;;13.55;9.48;;;12.40;99.90;;;;;;5038387;28;20089;-80
2023/04/29 08:38:13;;;;;;;13.65;9.30;;;12.50;99.90;;;;;;5054612;28;20098;-81
2023/04/29 08:40:45;;;;;;;13.20;8.95;;;12.60;99.90;;;;;;5020857;28;20117;-80
2023/04/29 08:43:12;;;;;;;;;;;12.60;99.90;;;;;;5054940;28;20049;-81
2023/04/29 08:45:38;;;;;;;13.93;9.50;;;12.60;99.90;;;;;;5053947;28;20387;-80
2023/04/29 08:48:06;;;;;;;13.13;9.25;;;12.70;99.90;;;;;;5037601;28;20109;-79
2023/04/29 08:50:38;;;;;;;13.07;8.77;;;12.70;99.90;;;;;;5053509;28;20119;-81
2023/04/29 08:53:08;;;;;;;12.27;9.32;;;12.80;99.90;;;;;;5053016;28;20476;-81
2023/04/29 08:55:45;;;;;;;13.93;9.13;;;13.00;99.90;;;;;;5053662;28;20043;-80
2023/04/29 08:58:12;;;;;;;13.90;8.88;;;12.80;99.90;;;;;;5053114;28;20052;-79
2023/04/29 09:00:39;;;;;;;12.65;9.15;;;12.80;99.90;;;;;;5019408;28;20097;-80
2023/04/29 09:03:16;;;;;;;12.85;8.85;;;12.90;99.90;;;;;;5035375;28;20040;-79
2023/04/29 09:05:44;;;;;;;14.20;9.38;;;13.10;99.90;;;;;;5052096;28;20855;-79
2023/04/29 09:08:11;;;;;;;12.55;9.10;;;13.30;99.90;;;;;;5035324;28;20049;-82
2023/04/29 09:10:43;;;;;;;15.18;10.07;;;13.20;99.90;;;;;;5051658;28;20048;-81
2023/04/29 09:13:25;;;;;;;16.02;10.52;;;13.10;99.90;;;;;;5052255;28;20115;-80
2023/04/29 09:15:51;;;;;;;14.75;9.75;;;13.00;99.90;;;;;;5051447;28;20119;-79
2023/04/29 09:18:42;;;;;;;15.27;10.00;;;13.00;99.90;;;;;;5033869;28;20807;-80
2023/04/29 09:21:26;;;;;;;14.85;9.60;;;13.20;99.90;;;;;;5051364;28;20072;-80
2023/04/29 09:23:54;;;;;;;12.45;9.38;;;13.30;99.90;;;;;;5051216;28;20043;-81
2023/04/29 09:26:20;;;;;;;13.23;9.60;;;13.20;99.90;;;;;;5050490;28;20445;-82
2023/04/29 09:28:46;;;;;;;11.05;9.25;;;13.10;99.90;;;;;;5053342;28;20037;-81
2023/04/29 09:31:26;;;;;;;12.55;9.02;;;13.10;99.90;;;;;;5034949;28;20089;-80
2023/04/29 09:33:57;;;;;;;12.15;8.45;;;13.00;99.90;;;;;;5043625;28;20551;-82
2023/04/29 09:36:50;;;;;;;11.95;9.60;;;13.20;99.90;;;;;;5035380;28;20087;-79
2023/04/29 09:39:21;;;;;;;13.38;9.45;;;13.40;99.90;;;;;;5030458;28;20094;-81
2023/04/29 09:41:53;;;;;;;12.13;9.30;;;13.70;99.90;;;;;;5053519;28;20059;-80
2023/04/29 09:44:23;;;;;;;13.85;8.85;;;14.00;99.90;;;;;;5055166;28;20044;-80
2023/04/29 09:47:05;;;;;;;11.43;8.82;;;13.70;99.90;;;;;;5056485;28;20531;-79
2023/04/29 09:49:34;;;;;;;13.20;9.32;;;13.40;99.90;;;;;;5040266;28;20040;-81
2023/04/29 09:52:02;;;;;;;11.45;9.13;;;13.50;99.90;;;;;;5056550;28;20685;-81
2023/04/29 09:54:30;;;;;;;12.95;9.05;;;13.60;99.90;;;;;;5044499;28;20037;-81
2023/04/29 09:56:57;;;;;;;13.43;8.85;;;13.70;99.90;;;;;;5043326;28;20495;-80
2023/04/29 09:59:24;;;;;;;14.43;8.98;;;13.80;99.90;;;;;;5058925;28;20036;-80
2023/04/29 10:01:52;;;;;;;15.23;9.30;;;13.70;99.90;;;;;;5057941;28;20040;-81
2023/04/29 10:04:19;;;;;;;12.30;8.85;;;13.70;99.90;;;;;;5058704;28;20101;-80
2023/04/29 10:06:48;;;;;;;12.13;8.82;;;14.00;99.90;;;;;;5043578;28;20043;-81
2023/04/29 10:09:15;;;;;;;14.10;8.73;;;13.70;99.90;;;;;;5041280;28;20047;-80
2023/04/29 10:11:42;;;;;;;11.52;8.52;;;13.70;99.90;;;;;;5040733;28;20395;-80
2023/04/29 10:14:14;;;;;;;14.90;8.43;;;13.80;99.90;;;;;;5048658;28;20532;-81
2023/04/29 10:16:49;;;;;;;11.80;8.63;;;14.00;99.90;;;;;;5045880;28;20040;-80
2023/04/29 10:19:24;;;;;;;14.13;8.25;;;14.20;99.90;;;;;;5023310;28;20056;-79
2023/04/29 10:21:52;;;;;;;10.77;8.40;;;14.40;99.90;;;;;;5038906;28;20355;-80
2023/04/29 10:24:18;;;;;;;15.65;8.50;;;14.40;99.90;;;;;;5038182;28;20051;-80
2023/04/29 10:26:46;;;;;;;11.50;8.10;;;14.40;99.90;;;;;;5055562;28;20039;-81
2023/04/29 10:29:14;;;;;;;14.55;8.02;;;14.60;99.90;;;;;;5073033;28;20142;-80
2023/04/29 10:31:42;;;;;;;14.90;8.18;;;14.50;99.90;;;;;;5054994;28;20111;-81
2023/04/29 10:34:07;;;;;;;12.82;7.90;;;14.40;99.90;;;;;;5038148;28;20036;-79
2023/04/29 10:36:34;;;;;;;10.20;7.60;;;14.30;99.90;;;;;;5053337;28;20713;-80
2023/04/29 10:39:03;;;;;;;10.73;7.75;;;13.90;99.90;;;;;;5021924;28;20048;-81
2023/04/29 10:41:58;;;;;;;11.05;8.02;;;13.80;99.90;;;;;;5054939;28;20040;-80
2023/04/29 10:44:24;;;;;;;11.70;7.53;;;14.00;99.90;;;;;;5034170;28;20127;-81
2023/04/29 10:47:19;;;;;;;12.30;7.93;;;14.00;99.90;;;;;;5038551;28;20183;-80
2023/04/29 10:50:03;;;;;;;12.05;7.45;;;14.20;99.90;;;;;;5044527;28;20402;-80
2023/04/29 10:52:29;;;;;;;11.23;7.35;;;14.40;99.90;;;;;;5038806;28;20035;-78
2023/04/29 10:55:02;;;;;;;11.63;7.30;;;14.30;99.90;;;;;;5021863;28;20036;-81
2023/04/29 10:57:29;;;;;;;11.65;7.97;;;14.30;99.90;;;;;;5019449;28;20491;-81
2023/04/29 10:59:55;;;;;;;10.15;7.82;;;14.40;99.90;;;;;;5038914;28;20659;-80
2023/04/29 11:02:21;;;;;;;8.95;7.15;;;14.50;99.90;;;;;;5039053;28;20399;-80
2023/04/29 11:05:09;;;;;;;10.55;6.97;;;14.50;99.90;;;;;;5039995;28;20063;-81
2023/04/29 11:07:35;;;;;;;9.20;6.60;;;14.70;99.90;;;;;;5038954;28;20032;-81
2023/04/29 11:10:01;;;;;;;10.20;7.15;;;14.60;99.90;;;;;;5056029;28;20105;-81
2023/04/29 11:12:27;;;;;;;8.63;6.25;;;14.60;99.90;;;;;;5022279;28;20044;-80
2023/04/29 11:15:00;;;;;;;8.10;6.68;;;14.70;99.90;;;;;;5023768;28;20063;-80
2023/04/29 11:17:33;;;;;;;8.50;6.25;;;14.80;99.90;;;;;;5023927;28;20067;-80
2023/04/29 11:20:00;;;;;;;7.45;5.88;;;14.90;99.90;;;;;;5055546;28;20485;-80
2023/04/29 11:22:27;;;;;;;7.97;5.55;;;15.10;99.90;;;;;;5019644;28;20037;-81
2023/04/29 11:25:06;;;;;;;9.55;5.28;;;15.20;99.90;;;;;;5012658;28;20053;-80
2023/04/29 11:27:33;;;;;;;7.72;5.13;;;15.20;99.90;;;;;;5054906;28;20032;-80
2023/04/29 11:30:02;;;;;;;5.80;4.90;;;15.20;99.90;;;;;;5038846;28;20028;-81
2023/04/29 11:32:30;;;;;;;7.57;5.25;;;15.20;99.90;;;;;;5038581;28;20111;-81
2023/04/29 11:35:10;;;;;;;11.18;6.18;;;15.30;99.90;;;;;;5055488;28;20047;-80
2023/04/29 11:37:36;;;;;;;11.57;6.85;;;15.50;99.90;;;;;;5039674;28;20131;-80
2023/04/29 11:40:02;;;;;;;8.82;6.22;;;15.60;99.90;;;;;;5054916;28;20040;-80
2023/04/29 11:42:28;;;;;;;10.00;5.85;;;15.50;99.90;;;;;;5053564;28;20399;-80
2023/04/29 11:44:59;;;;;;;6.43;4.65;;;15.50;99.90;;;;;;5036974;28;20044;-79
2023/04/29 11:47:29;;;;;;;9.23;4.80;;;15.40;99.90;;;;;;5053081;28;20480;-81
2023/04/29 11:50:03;;;;;;;8.48;5.72;;;15.30;99.90;;;;;;5038042;28;20040;-81
2023/04/29 11:52:29;;;;;;;8.20;5.65;;;15.10;99.90;;;;;;5054576;28;20388;-80
2023/04/29 11:54:57;;;;;;;5.80;4.50;;;15.20;99.90;;;;;;5021271;28;20120;-79
2023/04/29 11:57:23;;;;;;;8.38;5.10;;;15.20;99.90;;;;;;5053244;28;20491;-81
2023/04/29 11:59:49;;;;;;;7.32;5.38;;;15.30;99.90;;;;;;5052882;28;20045;-80
2023/04/29 12:02:15;;;;;;;7.53;5.40;;;15.30;99.90;;;;;;5038066;28;20040;-81
2023/04/29 12:04:47;;;;;;;8.45;5.75;;;15.20;99.90;;;;;;5054205;28;20536;-80
2023/04/29 12:07:15;;;;;;;;;;;15.20;99.90;;;;;;5054478;28;20463;-80
2023/04/29 12:09:43;;;;;;;7.05;5.38;;;15.10;99.90;;;;;;5053780;28;19920;-80
2023/04/29 12:12:10;;;;;;;8.13;5.25;;;15.10;99.90;;;;;;5037232;28;20029;-78
2023/04/29 12:14:36;;;;;;;6.20;4.97;;;15.10;99.90;;;;;;5019503;28;20044;-81
2023/04/29 12:17:02;;;;;;;9.13;4.85;;;15.20;99.90;;;;;;5052550;28;20064;-80
2023/04/29 12:19:28;;;;;;;6.32;4.72;;;15.30;99.90;;;;;;5053168;28;20393;-79
2023/04/29 12:21:58;;;;;;;7.65;4.75;;;15.20;99.90;;;;;;5020522;28;20048;-82
2023/04/29 12:24:23;;;;;;;6.43;4.50;;;15.30;99.90;;;;;;5020764;28;20051;-79
2023/04/29 12:26:49;;;;;;;6.70;4.35;;;15.00;99.90;;;;;;5037095;28;20032;-80
2023/04/29 12:29:15;;;;;;;4.85;3.95;;;14.90;99.90;;;;;;5020449;28;20128;-79
2023/04/29 12:31:42;;;;;;;5.15;4.10;;;14.80;99.90;;;;;;5036688;28;20166;-80
2023/04/29 12:34:08;;;;;;;4.07;3.67;;;14.80;99.40;;;;;;5036350;28;20064;-80
2023/04/29 12:36:33;;;;;;;4.22;3.83;;;14.90;99.90;;;;;;5053026;28;20036;-79
2023/04/29 12:39:00;;;;;;;5.32;3.50;;;15.00;97.50;;;;;;5036713;28;20032;-82
2023/04/29 12:41:36;;;;;;;6.72;3.75;;;15.10;95.80;;;;;;5020265;28;20044;-80